Capitol Logistics 1906




LEBL
Barcelona International Airport
Barcelona, ES
EDDK
Cologne Bonn Airport
Cologne, DE

Route Details

Aircraft Information
Group: European Fleet
Types: A30F,A31F,B738
Route Data
Demand: D
Distance: 612nm
Duration: 2h 04m
Recm'd Route: DALI2P DALIN UN870 MAXIR UN853 MOLUS N871 DITON T163 KOVAN T844 ASKIK T840 GULKO GULK14
Origin Wx: LEBL 270500Z 32009KT CAVOK 18/11 Q1018 NOSIG
Dest. Wx: EDDK 270520Z AUTO 26015KT 9999 -RADZ OVC014 14/11 Q1020 TEMPO 4000 RADZ BKN012
Notes:

Financial History
Total Freight: 35,897lbs
Average Load: 17,949lbs/flt
Fuel Used: 41,688lbs
Avg. Fuel Used: 20,844lbs/flt
Fuel Expense: $12,923
Avg. Fuel Expense: $6,462
Avg. Fuel Cost: $0.31/lbs
Total Gross Income: $77,263
Pilot Pay: $518
Total Expenses: $14,808
Total Revenue: $48,486
Average Revenue: $38,631.72